Thornhill, United Kingdom
Current Conditions -  °F | °C
As of 8:50 AM on Friday 19 Dec 2014 (Local Time) from EGPK Reporting Station
Scattered Clouds Scattered Clouds  
Wind Chill: 33°   Ceiling: Unl
Heat Index: 43°   Visibility: 6mi
Dew Point: 34°   Wind: 28mph
Humidity: 70%   Direction: 270°W
Pressure: 29.65"   Gusts: 40mph
Location:  55.23°N, 3.77°W
Report Text: EGPK 190850Z 27024G35KT 9999 FEW010 SCT020 06/01 Q1004
Loading
Personal Weather Stations






























Interactive Weather Map New forecast layout! Learn more

10-Day Weather Forecast

Advertisements
Track Severe Weather on mobile